Harrisburg International Airport Harrisburg US
ICAO: KMDT
IATA: MDT
Category: Medium
Scheduled Services: Yes

Elevation: 310 ft
TransAlt. 18000 ft.

Airport Communications:
APP/DEP:118.25
ATIS:118.8
GND:121.7
ANG OPS:39.51
TWR:124.8

KMDT Zoom In..

If you have problems with the map follow the link
https://www.worldairports.se/pages/airport.php?
ICAO=KMDT

Runways:

(A) RW 13 length 10002 ft width 200 ft
ILS 110.90 / hdg 128

(B) RW 31 length 10002 ft width 200 ft
ILS 110.90 / hdg 308

Location; KMDT
Day. 08 / Time. 05.56 Zulu
* Altimeter: 30.48
* Temperature: -04° c. -24.8°f.
* Wind from: 000° Speed 00 kn.
Dewpoint: -07° c.
Visibility: 10 Statute Miles.
Clouds: Clear (automated report).

KMDT 080556Z 00000KT 10SM CLR M04/M07 A3048 RMK AO2 SLP326 T10391067 11011 21050 51007


Wind - Calm.

 
 
jpsmedia worldairports.se 2019   terms of use